Brooke — WDB2356 — position and weather

sailwx.info

Track history (hours):
 
Tides and Currents Weather Stations Pressure Air Temp Water Temp Dewpoint Dewpoint Depression Visibility Wind Speed Wind Dir Waves Ship Positions

Brooke

Owner: MARTIN OPERATING PARTNERSHIP LP, La Porte, TX. More information available from US FCC via Universal Licensing System and Coast Guard Vessel Documentation Center.

Last reported at 2017-Oct-20 02:51 UTC. Time now 2017-Oct-20 18:24 UTC.
Position N 29°32' W 094°54'.

Length 20 m.

Type: Towing. MMSI: 366875030.

Date/timePositionNaut miles runAvg speedWind from/ knotsBaromVisibWave heightAir tempDewpointWater temp
2017-Oct-20 02:51N 29°32' W 094°54'2 5.6
2017-Oct-20 02:30N 29°34' W 094°55'3 5.8
2017-Oct-20 02:00N 29°36' W 094°57'3 5.7
2017-Oct-20 01:30N 29°39' W 094°58'3 5.9
2017-Oct-20 01:00N 29°41' W 094°59'6 0.2
2017-Oct-18 20:57N 29°46' W 095°05'2 4.3
2017-Oct-18 20:27N 29°44' W 095°03'2 4.1
2017-Oct-18 19:59N 29°43' W 095°01'2 3.6
2017-Oct-18 19:30N 29°42' W 094°60'2 3.8
2017-Oct-18 19:00N 29°40' W 094°59'2 3.6
2017-Oct-18 18:30N 29°39' W 094°58'2 3.8
2017-Oct-18 18:00N 29°37' W 094°57'2 3.9
2017-Oct-18 17:30N 29°35' W 094°56'2 4.1
2017-Oct-18 17:00N 29°33' W 094°55'0 0.0
2017-Oct-17 06:18N 29°33' W 094°55'2 5.7
2017-Oct-17 06:00N 29°35' W 094°56'3 5.8
2017-Oct-17 05:29N 29°38' W 094°58'3 6.2
2017-Oct-17 04:58N 29°41' W 094°59'8 3.4
2017-Oct-17 02:35N 29°48' W 095°04'0 0.0
2017-Oct-17 02:30N 29°48' W 095°04'0 0.0
2017-Oct-17 02:00N 29°48' W 095°04'0 0.0
2017-Oct-17 01:29N 29°48' W 095°04'0 0.0
2017-Oct-17 00:58N 29°48' W 095°04'2 1.0
2017-Oct-16 23:01N 29°46' W 095°05'3 7.0
2017-Oct-16 22:36N 29°44' W 095°08'1 7.0
2017-Oct-16 22:30N 29°44' W 095°08'1 1.7
2017-Oct-16 21:59N 29°44' W 095°09'1 0.5
2017-Oct-16 19:46N 29°44' W 095°08'2 7.3
2017-Oct-16 19:27N 29°45' W 095°11'2 5.0
2017-Oct-16 19:00N 29°44' W 095°13'0 0.1
2017-Oct-16 18:22N 29°44' W 095°13'3 0.1
2017-Oct-15 20:14N 29°45' W 095°10'2 4.3
2017-Oct-15 19:53N 29°44' W 095°09'4 4.2
2017-Oct-15 18:59N 29°46' W 095°05'2 4.0
2017-Oct-15 18:29N 29°44' W 095°03'2 3.5
2017-Oct-15 18:00N 29°44' W 095°01'2 3.6
2017-Oct-15 17:28N 29°42' W 095°00'2 3.9
2017-Oct-15 17:00N 29°41' W 094°59'2 4.0
2017-Oct-15 16:30N 29°39' W 094°58'2 4.2
2017-Oct-15 16:00N 29°37' W 094°57'2 4.1
2017-Oct-15 15:29N 29°35' W 094°56'2 4.0
2017-Oct-15 15:00N 29°33' W 094°55'1 0.0
2017-Oct-13 21:43N 29°32' W 094°54'1 4.0
2017-Oct-13 21:30N 29°33' W 094°55'2 4.1
2017-Oct-13 21:00N 29°35' W 094°56'2 4.0
2017-Oct-13 20:30N 29°36' W 094°57'2 4.3
2017-Oct-13 20:00N 29°38' W 094°58'2 4.4
2017-Oct-13 19:28N 29°40' W 094°59'8 0.7
2017-Oct-13 08:35N 29°47' W 095°05'0 0.0
2017-Oct-13 08:19N 29°47' W 095°05'0 0.3
2017-Oct-13 07:24N 29°46' W 095°05'1 1.8
2017-Oct-13 07:00N 29°46' W 095°05'3 4.6
2017-Oct-13 06:23N 29°44' W 095°02'2 4.3
2017-Oct-13 06:00N 29°42' W 095°01'2 5.0
2017-Oct-13 05:30N 29°41' W 094°59'2 4.9
2017-Oct-13 05:00N 29°39' W 094°58'2 4.8
2017-Oct-13 04:30N 29°36' W 094°57'2 4.3
2017-Oct-13 04:00N 29°35' W 094°56'2 4.9
2017-Oct-13 03:30N 29°33' W 094°54'8 0.1
2017-Oct-11 00:00N 29°39' W 094°58'4 6.5
2017-Oct-10 23:27N 29°42' W 095°01'  
Track history (hours):
 
Tides and Currents Weather Stations Pressure Air Temp Water Temp Dewpoint Dewpoint Depression Visibility Wind Speed Wind Dir Waves Ship Positions

Brooke

Owner: MARTIN OPERATING PARTNERSHIP LP, La Porte, TX. More information available from US FCC via Universal Licensing System and Coast Guard Vessel Documentation Center.

Last reported at 2017-Oct-20 02:51 UTC. Time now 2017-Oct-20 18:24 UTC.
Position N 29°32' W 094°54'.

Length 20 m.

Type: Towing. MMSI: 366875030.

Date/timePositionNaut miles runAvg speedWind from/ knotsBaromVisibWave heightAir tempDewpointWater temp
2017-Oct-20 02:51N 29°32' W 094°54'2 5.6
2017-Oct-20 02:30N 29°34' W 094°55'3 5.8
2017-Oct-20 02:00N 29°36' W 094°57'3 5.7
2017-Oct-20 01:30N 29°39' W 094°58'3 5.9
2017-Oct-20 01:00N 29°41' W 094°59'6 0.2
2017-Oct-18 20:57N 29°46' W 095°05'2 4.3
2017-Oct-18 20:27N 29°44' W 095°03'2 4.1
2017-Oct-18 19:59N 29°43' W 095°01'2 3.6
2017-Oct-18 19:30N 29°42' W 094°60'2 3.8
2017-Oct-18 19:00N 29°40' W 094°59'2 3.6
2017-Oct-18 18:30N 29°39' W 094°58'2 3.8
2017-Oct-18 18:00N 29°37' W 094°57'2 3.9
2017-Oct-18 17:30N 29°35' W 094°56'2 4.1
2017-Oct-18 17:00N 29°33' W 094°55'0 0.0
2017-Oct-17 06:18N 29°33' W 094°55'2 5.7
2017-Oct-17 06:00N 29°35' W 094°56'3 5.8
2017-Oct-17 05:29N 29°38' W 094°58'3 6.2
2017-Oct-17 04:58N 29°41' W 094°59'8 3.4
2017-Oct-17 02:35N 29°48' W 095°04'0 0.0
2017-Oct-17 02:30N 29°48' W 095°04'0 0.0
2017-Oct-17 02:00N 29°48' W 095°04'0 0.0
2017-Oct-17 01:29N 29°48' W 095°04'0 0.0
2017-Oct-17 00:58N 29°48' W 095°04'2 1.0
2017-Oct-16 23:01N 29°46' W 095°05'3 7.0
2017-Oct-16 22:36N 29°44' W 095°08'1 7.0
2017-Oct-16 22:30N 29°44' W 095°08'1 1.7
2017-Oct-16 21:59N 29°44' W 095°09'1 0.5
2017-Oct-16 19:46N 29°44' W 095°08'2 7.3
2017-Oct-16 19:27N 29°45' W 095°11'2 5.0
2017-Oct-16 19:00N 29°44' W 095°13'0 0.1
2017-Oct-16 18:22N 29°44' W 095°13'3 0.1
2017-Oct-15 20:14N 29°45' W 095°10'2 4.3
2017-Oct-15 19:53N 29°44' W 095°09'4 4.2
2017-Oct-15 18:59N 29°46' W 095°05'2 4.0
2017-Oct-15 18:29N 29°44' W 095°03'2 3.5
2017-Oct-15 18:00N 29°44' W 095°01'2 3.6
2017-Oct-15 17:28N 29°42' W 095°00'2 3.9
2017-Oct-15 17:00N 29°41' W 094°59'2 4.0
2017-Oct-15 16:30N 29°39' W 094°58'2 4.2
2017-Oct-15 16:00N 29°37' W 094°57'2 4.1
2017-Oct-15 15:29N 29°35' W 094°56'2 4.0
2017-Oct-15 15:00N 29°33' W 094°55'1 0.0
2017-Oct-13 21:43N 29°32' W 094°54'1 4.0
2017-Oct-13 21:30N 29°33' W 094°55'2 4.1
2017-Oct-13 21:00N 29°35' W 094°56'2 4.0
2017-Oct-13 20:30N 29°36' W 094°57'2 4.3
2017-Oct-13 20:00N 29°38' W 094°58'2 4.4
2017-Oct-13 19:28N 29°40' W 094°59'8 0.7
2017-Oct-13 08:35N 29°47' W 095°05'0 0.0
2017-Oct-13 08:19N 29°47' W 095°05'0 0.3
2017-Oct-13 07:24N 29°46' W 095°05'1 1.8
2017-Oct-13 07:00N 29°46' W 095°05'3 4.6
2017-Oct-13 06:23N 29°44' W 095°02'2 4.3
2017-Oct-13 06:00N 29°42' W 095°01'2 5.0
2017-Oct-13 05:30N 29°41' W 094°59'2 4.9
2017-Oct-13 05:00N 29°39' W 094°58'2 4.8
2017-Oct-13 04:30N 29°36' W 094°57'2 4.3
2017-Oct-13 04:00N 29°35' W 094°56'2 4.9
2017-Oct-13 03:30N 29°33' W 094°54'8 0.1
2017-Oct-11 00:00N 29°39' W 094°58'4 6.5
2017-Oct-10 23:27N 29°42' W 095°01'  

Dump ship's entire track history